Time;durP1;ratioP1;P1;durP2;ratioP2;P2;SDS_P1;SDS_P2;PMS_P1;PMS_P2;Temp;Humidity;BMP_temperature;BMP_pressure;BME280_temperature;BME280_humidity;BME280_pressure;Samples;Min_cycle;Max_cycle;Signal;HPM_P1;HPM_P2
2022/03/28 00:01:14;;;;;;;28.17;14.02;;;;;;;8.69;69.61;99887.91;4999075;28;20030;-79
2022/03/28 00:03:39;;;;;;;29.48;14.93;;;;;;;8.64;69.98;99887.72;5028985;28;20025;-79
2022/03/28 00:06:07;;;;;;;29.13;14.38;;;;;;;8.60;69.32;99899.81;5010643;28;20040;-79
2022/03/28 00:08:33;;;;;;;26.35;13.88;;;;;;;8.51;70.13;99895.72;5013557;28;20033;-80
2022/03/28 00:10:58;;;;;;;32.53;14.73;;;;;;;8.45;69.77;99888.59;5029385;28;20030;-79
2022/03/28 00:13:23;;;;;;;30.42;14.02;;;;;;;8.42;70.15;99881.03;5009104;28;20401;-79
2022/03/28 00:15:49;;;;;;;31.17;14.95;;;;;;;8.37;70.28;99878.16;4993866;28;20037;-78
2022/03/28 00:18:14;;;;;;;32.03;14.93;;;;;;;8.37;69.85;99884.31;5009465;28;20537;-79
2022/03/28 00:20:39;;;;;;;34.03;15.70;;;;;;;8.26;70.39;99876.97;5033295;28;20034;-79
2022/03/28 00:23:05;;;;;;;30.33;15.15;;;;;;;8.25;70.34;99878.84;5032263;28;20033;-79
2022/03/28 00:25:30;;;;;;;32.67;14.63;;;;;;;8.25;70.38;99878.84;5030307;28;20022;-78
2022/03/28 00:27:56;;;;;;;26.15;13.00;;;;;;;8.25;69.72;99875.31;5026421;28;20029;-78
2022/03/28 00:30:21;;;;;;;30.42;14.35;;;;;;;8.23;70.02;99866.72;5029184;28;20174;-78
2022/03/28 00:32:47;;;;;;;33.50;15.80;;;;;;;8.16;69.73;99872.06;5024726;28;20037;-77
2022/03/28 00:35:12;;;;;;;33.35;14.65;;;;;;;8.08;70.62;99861.63;5024651;28;20025;-78
2022/03/28 00:37:39;;;;;;;29.40;14.60;;;;;;;8.12;69.92;99859.38;5008986;28;20120;-78
2022/03/28 00:40:06;;;;;;;31.20;14.75;;;;;;;8.10;69.35;99864.91;4991430;28;20029;-78
2022/03/28 00:42:31;;;;;;;32.20;16.17;;;;;;;8.04;70.57;99864.91;5009312;28;20037;-78
2022/03/28 00:44:56;;;;;;;34.90;14.73;;;;;;;7.97;71.40;99862.25;5029720;28;20091;-80
2022/03/28 00:47:22;;;;;;;35.78;14.40;;;;;;;8.03;71.40;99855.31;5029644;28;20477;-80
2022/03/28 00:49:47;;;;;;;35.50;17.63;;;;;;;8.04;71.38;99854.28;5029734;28;21017;-80
2022/03/28 00:52:14;;;;;;;29.55;14.60;;;;;;;8.06;70.71;99853.03;5014087;28;20051;-80
2022/03/28 00:54:39;;;;;;;36.42;16.77;;;;;;;8.01;70.62;99849.38;5029583;28;20229;-80
2022/03/28 00:57:04;;;;;;;35.58;16.30;;;;;;;8.02;70.09;99853.66;5031355;28;20560;-80
2022/03/28 00:59:32;;;;;;;34.45;16.40;;;;;;;7.89;71.57;99851.03;5031565;28;20034;-80
2022/03/28 01:01:58;;;;;;;41.80;16.85;;;;;;;7.87;71.09;99843.25;5018489;28;20037;-80
2022/03/28 01:04:24;;;;;;;33.35;16.23;;;;;;;7.91;71.46;99851.63;5017578;28;20021;-80
2022/03/28 01:06:49;;;;;;;32.90;16.77;;;;;;;7.87;71.53;99835.28;5032930;28;20090;-80
2022/03/28 01:09:16;;;;;;;36.40;15.30;;;;;;;7.75;71.38;99826.31;5015716;28;20136;-80
2022/03/28 01:11:43;;;;;;;33.78;16.42;;;;;;;7.79;71.20;99832.03;5016588;28;20021;-80
2022/03/28 01:14:09;;;;;;;31.42;15.75;;;;;;;7.66;71.56;99834.69;5031697;28;20419;-80
2022/03/28 01:18:05;;;;;;;33.90;16.67;;;;;;;7.62;71.80;99829.00;5027793;28;20055;-80
2022/03/28 01:19:19;;;;;;;33.97;14.57;;;;;;;7.72;71.29;99823.25;5033311;28;20119;-80
2022/03/28 01:21:44;;;;;;;32.78;15.85;;;;;;;7.73;71.27;99822.22;5027393;28;20068;-79
2022/03/28 01:24:11;;;;;;;32.08;15.77;;;;;;;7.64;72.31;99823.47;5012467;28;20053;-79
2022/03/28 01:26:37;;;;;;;32.85;15.73;;;;;;;7.65;72.35;99825.09;5026895;28;20018;-79
2022/03/28 01:29:02;;;;;;;32.13;16.25;;;;;;;7.70;72.25;99820.81;4992528;28;20112;-78
2022/03/28 01:31:28;;;;;;;42.85;17.95;;;;;;;7.59;72.66;99818.75;5007371;28;20052;-79
2022/03/28 01:33:53;;;;;;;34.15;16.52;;;;;;;7.55;72.49;99810.41;5027984;28;20177;-79
2022/03/28 01:36:25;;;;;;;35.20;16.58;;;;;;;7.66;72.42;99813.44;5012312;28;20379;-80
2022/03/28 01:38:50;;;;;;;34.85;16.60;;;;;;;7.44;72.76;99800.41;5030472;28;20045;-79
2022/03/28 01:41:16;;;;;;;32.45;17.08;;;;;;;7.44;72.60;99802.22;5012017;28;20091;-79
2022/03/28 01:43:41;;;;;;;39.25;17.23;;;;;;;7.41;72.73;99799.97;5011499;28;20507;-78
2022/03/28 01:46:06;;;;;;;34.55;17.38;;;;;;;7.38;72.39;99797.75;5012551;28;20045;-78
2022/03/28 01:48:32;;;;;;;36.47;16.42;;;;;;;7.46;71.81;99794.88;5027378;28;20025;-79
2022/03/28 01:50:57;;;;;;;35.25;16.30;;;;;;;7.34;71.88;99797.31;4997942;28;20033;-80
2022/03/28 01:53:23;;;;;;;35.08;17.52;;;;;;;7.22;71.86;99788.34;5013307;28;20029;-80
2022/03/28 01:55:48;;;;;;;39.40;17.73;;;;;;;7.33;71.43;99797.53;5031865;28;20033;-80
2022/03/28 01:58:13;;;;;;;34.10;16.17;;;;;;;7.21;71.80;99784.03;5010175;28;20030;-80
2022/03/28 02:00:39;;;;;;;37.30;17.40;;;;;;;7.33;71.88;99784.25;5013299;28;20034;-80
2022/03/28 02:03:04;;;;;;;41.38;19.13;;;;;;;7.27;71.95;99785.06;4997670;28;20037;-80
2022/03/28 02:05:29;;;;;;;37.05;16.40;;;;;;;7.21;72.07;99781.38;5008970;28;21713;-80
2022/03/28 02:07:55;;;;;;;40.35;17.60;;;;;;;7.09;72.62;99771.56;5033295;28;20035;-80
2022/03/28 02:10:21;;;;;;;34.67;16.92;;;;;;;7.19;72.01;99775.44;5030770;28;20021;-80
2022/03/28 02:12:48;;;;;;;39.50;17.42;;;;;;;7.21;72.09;99776.06;4994935;28;20030;-79
2022/03/28 02:15:13;;;;;;;32.53;15.82;;;;;;;7.18;72.32;99771.19;4992560;28;20037;-79
2022/03/28 02:17:40;;;;;;;31.17;15.65;;;;;;;7.11;72.00;99765.03;5025704;28;20112;-79
2022/03/28 02:20:08;;;;;;;33.75;16.17;;;;;;;7.12;71.89;99768.53;5009460;28;20033;-79
2022/03/28 02:22:35;;;;;;;36.13;15.43;;;;;;;7.09;71.38;99759.13;5023923;28;20647;-78
2022/03/28 02:25:01;;;;;;;37.25;16.40;;;;;;;7.01;71.05;99748.69;5028095;28;20557;-79
2022/03/28 02:27:27;;;;;;;35.70;15.85;;;;;;;6.99;71.08;99747.28;5025911;28;20071;-79
2022/03/28 02:29:52;;;;;;;39.25;17.25;;;;;;;6.92;71.88;99749.09;5011369;28;20065;-80
2022/03/28 02:32:18;;;;;;;30.95;15.93;;;;;;;6.91;71.95;99742.97;5012312;28;20124;-79
2022/03/28 02:34:43;;;;;;;35.75;17.77;;;;;;;7.03;72.18;99745.84;5030586;28;20025;-80
2022/03/28 02:37:09;;;;;;;37.35;17.90;;;;;;;6.94;72.06;99737.28;5011438;28;20049;-79
2022/03/28 02:39:34;;;;;;;36.08;16.48;;;;;;;6.90;71.87;99728.09;4993915;28;20033;-80
2022/03/28 02:42:00;;;;;;;36.72;15.23;;;;;;;6.78;72.26;99733.16;5007752;28;20029;-79
2022/03/28 02:44:25;;;;;;;39.35;17.98;;;;;;;6.82;72.48;99728.25;5029904;28;20037;-78
2022/03/28 02:46:50;;;;;;;39.85;16.27;;;;;;;6.87;72.21;99730.31;5027052;28;20040;-79
2022/03/28 02:49:18;;;;;;;39.67;17.27;;;;;;;6.90;72.28;99722.78;5034384;28;20144;-79
2022/03/28 02:51:44;;;;;;;37.08;16.83;;;;;;;6.76;71.60;99726.44;5036616;28;20052;-79
2022/03/28 02:54:09;;;;;;;38.40;17.10;;;;;;;6.64;72.35;99728.06;5017561;28;20150;-80
2022/03/28 02:56:34;;;;;;;41.38;17.92;;;;;;;6.52;72.86;99727.81;5033721;28;20033;-79
2022/03/28 02:59:00;;;;;;;41.50;17.63;;;;;;;6.71;72.88;99716.41;5034350;28;20048;-79
2022/03/28 03:01:25;;;;;;;41.00;18.95;;;;;;;6.65;73.30;99709.28;5033890;28;20117;-79
2022/03/28 03:03:51;;;;;;;36.70;17.25;;;;;;;6.65;72.33;99705.81;5017169;28;20033;-79
2022/03/28 03:06:16;;;;;;;38.03;18.58;;;;;;;6.63;73.37;99706.00;5003485;28;20128;-79
2022/03/28 03:08:42;;;;;;;46.15;18.05;;;;;;;6.47;73.79;99697.59;5032676;28;20037;-78
2022/03/28 03:11:08;;;;;;;37.60;18.05;;;;;;;6.54;73.30;99693.97;5035620;28;20128;-80
2022/03/28 03:13:33;;;;;;;37.08;18.02;;;;;;;6.59;72.75;99699.47;5013231;28;20537;-78
2022/03/28 03:15:59;;;;;;;37.80;17.98;;;;;;;6.56;73.01;99689.25;5010506;28;20111;-78
2022/03/28 03:18:25;;;;;;;39.38;19.15;;;;;;;6.51;72.92;99694.34;5018445;28;20164;-79
2022/03/28 03:20:50;;;;;;;37.90;18.73;;;;;;;6.59;72.45;99686.22;5015882;28;20661;-78
2022/03/28 03:23:15;;;;;;;37.47;16.92;;;;;;;6.48;71.92;99688.63;5034023;28;21649;-79
2022/03/28 03:25:40;;;;;;;43.65;19.30;;;;;;;6.37;72.84;99686.56;5035770;28;20036;-79
2022/03/28 03:28:06;;;;;;;43.10;17.77;;;;;;;6.40;72.46;99694.13;4996529;28;20794;-79
2022/03/28 03:30:31;;;;;;;39.63;19.13;;;;;;;6.39;72.93;99692.50;5030814;28;20501;-79
2022/03/28 03:32:57;;;;;;;37.92;17.05;;;;;;;6.40;73.19;99694.13;5017800;28;20064;-79
2022/03/28 03:35:23;;;;;;;43.78;18.70;;;;;;;6.25;73.50;99694.28;5034852;28;20705;-81
2022/03/28 03:37:50;;;;;;;44.53;18.40;;;;;;;6.35;73.63;99699.22;5035267;28;20056;-80
2022/03/28 03:40:15;;;;;;;41.03;19.00;;;;;;;6.30;73.00;99686.56;5035268;28;20021;-80
2022/03/28 03:42:41;;;;;;;45.58;17.85;;;;;;;6.29;73.63;99687.56;5018667;28;22379;-80
2022/03/28 03:45:07;;;;;;;39.08;16.85;;;;;;;6.34;72.83;99694.91;5002209;28;20521;-80
2022/03/28 03:47:33;;;;;;;37.80;18.70;;;;;;;6.28;72.07;99688.59;4997468;28;20037;-79
2022/03/28 03:49:58;;;;;;;45.13;17.67;;;;;;;6.21;72.91;99684.28;5034260;28;20037;-80
2022/03/28 03:52:23;;;;;;;36.35;17.10;;;;;;;6.21;72.69;99687.75;5022025;28;20037;-80
2022/03/28 03:54:49;;;;;;;44.78;18.75;;;;;;;6.18;72.89;99674.88;5019058;28;20033;-80
2022/03/28 03:57:14;;;;;;;39.00;18.67;;;;;;;6.09;73.62;99686.72;5014548;28;20049;-79
2022/03/28 03:59:40;;;;;;;45.13;18.90;;;;;;;6.22;72.52;99684.09;5013328;28;20104;-79
2022/03/28 04:02:05;;;;;;;31.88;17.60;;;;;;;6.17;72.84;99680.41;5034554;28;20425;-79
2022/03/28 04:04:30;;;;;;;34.95;16.88;;;;;;;6.13;73.30;99682.66;5016521;28;20068;-80
2022/03/28 04:06:56;;;;;;;38.72;18.52;;;;;;;6.03;73.66;99683.00;5016917;28;20041;-80
2022/03/28 04:09:21;;;;;;;36.88;17.17;;;;;;;6.01;74.35;99679.75;5035288;28;20402;-80
2022/03/28 04:11:47;;;;;;;39.67;17.27;;;;;;;6.05;74.87;99678.31;5035231;28;20056;-80
2022/03/28 04:14:12;;;;;;;37.80;18.80;;;;;;;6.06;75.09;99671.19;5027604;28;20025;-80
2022/03/28 04:16:37;;;;;;;39.65;18.85;;;;;;;6.11;74.88;99668.78;5012532;28;20113;-80
2022/03/28 04:19:03;;;;;;;45.08;18.45;;;;;;;6.06;74.13;99668.56;5037412;28;20032;-80
2022/03/28 04:21:28;;;;;;;42.55;18.83;;;;;;;6.16;73.17;99668.97;5033527;28;20049;-79
2022/03/28 04:23:53;;;;;;;39.38;17.88;;;;;;;6.19;73.15;99665.94;5014931;28;20041;-78
2022/03/28 04:26:19;;;;;;;35.45;17.92;;;;;;;6.10;72.58;99655.72;5029702;28;20390;-79
2022/03/28 04:28:44;;;;;;;45.45;19.17;;;;;;;6.09;72.74;99654.09;5029482;28;20107;-79
2022/03/28 04:31:10;;;;;;;44.78;18.23;;;;;;;5.90;73.00;99656.47;5032177;28;20029;-78
2022/03/28 04:33:36;;;;;;;42.65;18.80;;;;;;;5.86;73.30;99659.72;5029469;28;20029;-79
2022/03/28 04:36:02;;;;;;;44.03;19.25;;;;;;;5.95;72.94;99654.06;5032896;28;20026;-79
2022/03/28 04:38:27;;;;;;;42.08;18.67;;;;;;;5.85;73.25;99653.59;5029714;28;20390;-78
2022/03/28 04:40:53;;;;;;;47.55;19.58;;;;;;;5.85;73.37;99643.00;5013582;28;20103;-79
2022/03/28 04:43:18;;;;;;;49.33;20.48;;;;;;;5.88;73.95;99639.13;5029190;28;20045;-79
2022/03/28 04:45:44;;;;;;;44.13;19.42;;;;;;;5.76;73.89;99630.94;5032970;28;20022;-80
2022/03/28 04:48:09;;;;;;;38.70;19.23;;;;;;;5.91;73.05;99636.91;5032501;28;20040;-79
2022/03/28 04:50:35;;;;;;;41.63;18.80;;;;;;;5.96;72.55;99636.31;5027574;28;20075;-78
2022/03/28 04:53:00;;;;;;;45.65;20.17;;;;;;;5.83;72.24;99623.81;5010791;28;20045;-79
2022/03/28 04:55:26;;;;;;;46.20;19.23;;;;;;;5.71;72.90;99632.53;5032565;28;20064;-79
2022/03/28 04:57:51;;;;;;;46.47;18.85;;;;;;;5.67;73.67;99632.13;5026219;28;20450;-79
2022/03/28 05:00:17;;;;;;;45.83;18.48;;;;;;;5.66;73.82;99630.47;5010911;28;20037;-78
2022/03/28 05:02:43;;;;;;;36.55;17.77;;;;;;;5.62;73.98;99625.75;5025807;28;20048;-78
2022/03/28 05:05:09;;;;;;;43.75;18.02;;;;;;;5.59;73.60;99626.16;5024980;28;20046;-77
2022/03/28 05:07:37;;;;;;;48.92;19.90;;;;;;;5.52;74.14;99626.16;5024653;28;20037;-77
2022/03/28 05:10:05;;;;;;;41.70;17.45;;;;;;;5.72;72.92;99621.72;5025221;28;20040;-77
2022/03/28 05:12:31;;;;;;;39.60;17.58;;;;;;;5.75;73.13;99625.81;5025732;28;20029;-79
2022/03/28 05:14:56;;;;;;;39.03;16.88;;;;;;;5.82;72.26;99632.78;5023489;28;20071;-78
2022/03/28 05:17:26;;;;;;;35.33;16.75;;;;;;;5.80;72.86;99624.22;5022559;28;20033;-78
2022/03/28 05:19:52;;;;;;;36.78;18.35;;;;;;;5.90;72.71;99621.22;5024193;28;20030;-78
2022/03/28 05:22:19;;;;;;;34.92;17.02;;;;;;;5.86;72.57;99614.69;5009524;28;20100;-77
2022/03/28 05:24:45;;;;;;;44.40;19.35;;;;;;;5.98;71.94;99621.03;5025647;28;20030;-78
2022/03/28 05:27:11;;;;;;;39.40;19.75;;;;;;;5.95;71.90;99618.78;5023842;28;20454;-79
2022/03/28 05:29:36;;;;;;;48.42;20.15;;;;;;;5.95;72.47;99609.00;5010887;28;20022;-78
2022/03/28 05:32:03;;;;;;;38.60;19.85;;;;;;;5.98;72.06;99611.25;5028411;28;20112;-78
2022/03/28 05:34:30;;;;;;;44.28;18.95;;;;;;;6.00;72.20;99603.94;5008091;28;20068;-78
2022/03/28 05:36:57;;;;;;;42.17;19.05;;;;;;;6.02;71.88;99599.25;5022281;28;20064;-78
2022/03/28 05:39:22;;;;;;;41.38;18.08;;;;;;;6.08;72.06;99597.63;4995862;28;20672;-78
2022/03/28 05:41:48;;;;;;;41.63;17.58;;;;;;;6.10;71.71;99592.09;5026488;28;20022;-78
2022/03/28 05:44:13;;;;;;;42.08;18.63;;;;;;;6.14;71.78;99610.06;5009634;28;20555;-78
2022/03/28 05:46:38;;;;;;;38.53;18.20;;;;;;;6.16;72.13;99599.28;5030526;28;20045;-78
2022/03/28 05:49:05;;;;;;;39.72;16.73;;;;;;;6.23;72.10;99602.72;5020221;28;20413;-77
2022/03/28 05:51:30;;;;;;;40.47;18.58;;;;;;;6.24;71.67;99599.06;5025765;28;20033;-78
2022/03/28 05:53:56;;;;;;;44.45;18.23;;;;;;;6.24;71.88;99599.06;5027185;28;20033;-77
2022/03/28 05:56:21;;;;;;;36.75;17.20;;;;;;;6.26;72.72;99602.34;5023788;28;20029;-81
2022/03/28 05:58:46;;;;;;;33.95;16.60;;;;;;;6.27;72.21;99601.34;5005545;28;20025;-78
2022/03/28 06:01:12;;;;;;;32.72;16.70;;;;;;;6.37;72.25;99599.91;5026094;28;20056;-78
2022/03/28 06:03:37;;;;;;;36.80;16.55;;;;;;;6.35;71.60;99601.13;5021353;28;20030;-78
2022/03/28 06:06:04;;;;;;;31.77;16.10;;;;;;;6.34;72.05;99610.09;5029603;28;20482;-78
2022/03/28 06:08:29;;;;;;;36.33;16.85;;;;;;;6.38;72.39;99600.69;5029062;28;20037;-77
2022/03/28 06:10:55;;;;;;;34.95;15.43;;;;;;;6.43;72.43;99599.09;5026007;28;20501;-77
2022/03/28 06:13:20;;;;;;;36.95;16.55;;;;;;;6.40;72.33;99591.53;5022440;28;20083;-78
2022/03/28 06:16:08;;;;;;;31.88;16.85;;;;;;;6.48;71.79;99593.19;5025961;28;20033;-79
2022/03/28 06:18:34;;;;;;;36.65;16.95;;;;;;;6.53;72.15;99594.19;5023381;28;20087;-78
2022/03/28 06:20:59;;;;;;;35.90;17.00;;;;;;;6.46;71.91;99587.28;5007269;28;20426;-78
2022/03/28 06:23:24;;;;;;;32.72;16.20;;;;;;;6.46;72.55;99580.13;5008194;28;20033;-79
2022/03/28 06:25:49;;;;;;;42.53;18.50;;;;;;;6.61;71.85;99594.00;5024558;28;20162;-79
2022/03/28 06:28:15;;;;;;;30.23;15.30;;;;;;;6.65;72.00;99584.63;5025634;28;20038;-78
2022/03/28 06:30:41;;;;;;;31.25;15.63;;;;;;;6.65;71.71;99584.63;5022966;28;20029;-78
2022/03/28 06:33:06;;;;;;;33.58;15.32;;;;;;;6.76;72.36;99583.16;5030064;28;20033;-81
2022/03/28 06:35:31;;;;;;;36.67;17.38;;;;;;;6.69;72.39;99583.19;5024520;28;20048;-78
2022/03/28 06:37:56;;;;;;;36.33;16.27;;;;;;;6.70;71.82;99584.00;5019462;28;20072;-79
2022/03/28 06:40:24;;;;;;;27.95;16.17;;;;;;;6.73;71.83;99584.38;5026149;28;20034;-77
2022/03/28 06:42:49;;;;;;;33.30;16.13;;;;;;;6.76;72.66;99588.47;5022574;28;20079;-78
2022/03/28 06:45:15;;;;;;;35.22;16.98;;;;;;;6.81;72.37;99584.16;5020834;28;20072;-77
2022/03/28 06:47:41;;;;;;;33.92;15.50;;;;;;;6.75;72.92;99565.59;5025480;28;20498;-80
2022/03/28 06:50:07;;;;;;;28.67;16.08;;;;;;;6.83;72.96;99578.69;5027076;28;20029;-78
2022/03/28 06:52:34;;;;;;;36.70;18.10;;;;;;;6.85;73.12;99570.50;5017130;28;20033;-77
2022/03/28 06:54:59;;;;;;;34.80;17.08;;;;;;;6.87;73.76;99569.28;5017311;28;20077;-77
2022/03/28 06:57:25;;;;;;;32.55;16.38;;;;;;;6.91;73.93;99578.44;5006422;28;20458;-78
2022/03/28 06:59:50;;;;;;;31.85;16.02;;;;;;;6.97;73.20;99580.28;5005649;28;20545;-78
2022/03/28 07:02:15;;;;;;;30.75;15.70;;;;;;;7.08;72.92;99579.63;5027415;28;20498;-77
2022/03/28 07:04:41;;;;;;;32.55;16.00;;;;;;;7.07;73.34;99570.06;5004037;28;20064;-77
2022/03/28 07:07:08;;;;;;;31.77;16.65;;;;;;;7.09;73.14;99568.00;5020349;28;20040;-77
2022/03/28 07:09:34;;;;;;;34.50;15.68;;;;;;;7.15;73.10;99561.03;5028849;28;20033;-79
2022/03/28 07:11:59;;;;;;;33.20;16.70;;;;;;;7.16;72.93;99558.19;5010852;28;20076;-78
2022/03/28 07:14:25;;;;;;;30.45;16.77;;;;;;;7.27;73.28;99559.38;5025416;28;20521;-78
2022/03/28 07:16:50;;;;;;;32.28;16.92;;;;;;;7.22;73.40;99552.03;5025919;28;20363;-78
2022/03/28 07:19:16;;;;;;;27.30;15.15;;;;;;;7.23;72.84;99545.69;5009386;28;20684;-79
2022/03/28 07:21:41;;;;;;;32.10;16.13;;;;;;;7.33;73.85;99551.38;5013425;28;20368;-79
2022/03/28 07:24:06;;;;;;;28.45;16.55;;;;;;;7.41;73.04;99547.66;5026548;28;20059;-77
2022/03/28 07:26:32;;;;;;;27.58;15.00;;;;;;;7.43;73.46;99548.28;5023958;28;20033;-77
2022/03/28 07:29:02;;;;;;;30.90;16.55;;;;;;;7.50;73.37;99544.56;4988701;28;20112;-76
2022/03/28 07:31:27;;;;;;;36.63;17.98;;;;;;;7.57;73.21;99545.38;5024361;28;20130;-78
2022/03/28 07:34:29;;;;;;;31.00;16.45;;;;;;;7.57;73.21;99540.06;5018816;28;20514;-78
2022/03/28 07:36:38;;;;;;;37.05;18.77;;;;;;;7.68;73.24;99545.72;5034324;28;20427;-78
2022/03/28 07:39:03;;;;;;;30.77;16.38;;;;;;;7.67;73.84;99536.91;5033146;28;20044;-79
2022/03/28 07:41:29;;;;;;;35.83;17.98;;;;;;;7.77;73.64;99536.47;5014000;28;20029;-78
2022/03/28 07:43:54;;;;;;;31.45;17.17;;;;;;;7.75;73.63;99536.69;5017369;28;20104;-79
2022/03/28 07:46:19;;;;;;;31.63;16.65;;;;;;;7.83;73.92;99530.28;5033745;28;20020;-77
2022/03/28 07:48:45;;;;;;;29.92;17.48;;;;;;;7.85;73.65;99515.75;5030341;28;20112;-78
2022/03/28 07:51:10;;;;;;;30.67;17.95;;;;;;;7.94;74.42;99530.44;5022418;28;20033;-78
2022/03/28 07:53:37;;;;;;;35.47;18.85;;;;;;;8.10;75.01;99526.44;5028402;28;20029;-77
2022/03/28 07:56:03;;;;;;;32.75;17.33;;;;;;;8.09;74.26;99525.63;5005334;28;20056;-77
2022/03/28 07:58:29;;;;;;;29.83;16.70;;;;;;;8.11;74.93;99528.06;5028235;28;20033;-78
2022/03/28 08:00:55;;;;;;;33.58;17.95;;;;;;;8.16;74.23;99513.09;5031944;28;20033;-78
2022/03/28 08:03:20;;;;;;;28.25;17.38;;;;;;;8.27;74.72;99522.25;5029954;28;20033;-77
2022/03/28 08:05:46;;;;;;;33.67;16.77;;;;;;;8.28;74.30;99515.88;5026604;28;20062;-76
2022/03/28 08:08:11;;;;;;;29.88;16.75;;;;;;;8.32;75.05;99515.22;5028347;28;20508;-77
2022/03/28 08:10:36;;;;;;;37.42;18.23;;;;;;;8.38;74.56;99516.22;5035141;28;20075;-77
2022/03/28 08:13:02;;;;;;;28.83;17.10;;;;;;;8.49;75.50;99504.06;5032100;28;20071;-77
2022/03/28 08:15:27;;;;;;;27.23;17.88;;;;;;;8.52;74.44;99504.41;5024050;28;20569;-78
2022/03/28 08:17:52;;;;;;;31.65;18.42;;;;;;;8.56;75.30;99502.16;4996171;28;20037;-77
2022/03/28 08:20:18;;;;;;;30.40;18.15;;;;;;;8.64;75.30;99489.38;5027755;28;20026;-78
2022/03/28 08:22:48;;;;;;;32.95;17.33;;;;;;;8.71;74.93;99490.13;5026745;28;20037;-77
2022/03/28 08:25:14;;;;;;;29.52;16.83;;;;;;;8.74;74.55;99494.16;5029825;28;20021;-78
2022/03/28 08:27:41;;;;;;;32.70;18.88;;;;;;;8.84;74.98;99486.50;5033992;28;20026;-78
2022/03/28 08:30:07;;;;;;;27.42;17.60;;;;;;;8.90;74.29;99488.28;5033608;28;20034;-78
2022/03/28 08:32:42;;;;;;;27.67;17.92;;;;;;;9.10;73.22;99488.88;5031722;28;20088;-78
2022/03/28 08:35:08;;;;;;;35.53;20.15;;;;;;;9.01;75.10;99479.56;5028656;28;20029;-78
2022/03/28 08:37:34;;;;;;;32.40;19.10;;;;;;;9.11;74.79;99489.69;5029659;28;20045;-78
2022/03/28 08:39:59;;;;;;;33.35;19.08;;;;;;;9.08;74.88;99477.63;5034259;28;20040;-77
2022/03/28 08:42:25;;;;;;;29.67;19.23;;;;;;;9.33;74.55;99477.50;5032905;28;20037;-78
2022/03/28 08:44:51;;;;;;;32.92;20.40;;;;;;;9.27;75.36;99478.41;5027040;28;20037;-77
2022/03/28 08:47:18;;;;;;;34.35;20.88;;;;;;;9.29;75.66;99460.34;5030510;28;20026;-77
2022/03/28 08:49:46;;;;;;;29.40;19.27;;;;;;;9.40;75.92;99465.72;5004412;28;20033;-83
2022/03/28 08:52:12;;;;;;;32.25;20.90;;;;;;;9.43;76.02;99461.81;5027272;28;20129;-78
2022/03/28 08:54:37;;;;;;;33.83;19.55;;;;;;;9.50;75.77;99470.53;5008914;28;20113;-77
2022/03/28 08:57:03;;;;;;;34.72;21.15;;;;;;;9.55;75.42;99468.81;5024422;28;20030;-77
2022/03/28 08:59:29;;;;;;;32.72;22.05;;;;;;;9.60;75.85;99460.13;5015139;28;20132;-78
2022/03/28 09:01:54;;;;;;;33.38;20.95;;;;;;;9.69;76.76;99467.59;5010470;28;20447;-79
2022/03/28 09:04:19;;;;;;;37.42;21.55;;;;;;;9.77;75.82;99461.09;5011179;28;20128;-77
2022/03/28 09:06:45;;;;;;;33.70;21.60;;;;;;;9.90;75.59;99452.09;5029319;28;20052;-77
2022/03/28 09:09:31;;;;;;;34.85;21.92;;;;;;;10.03;74.96;99441.19;5032521;28;20064;-78
2022/03/28 09:12:08;;;;;;;36.85;21.88;;;;;;;10.17;75.56;99443.47;5028706;28;20029;-77
2022/03/28 09:14:40;;;;;;;34.90;20.77;;;;;;;10.25;74.75;99443.13;5031880;28;20536;-77
2022/03/28 09:17:12;;;;;;;32.10;21.25;;;;;;;10.52;74.44;99430.94;5030783;28;20029;-77
2022/03/28 09:20:03;;;;;;;39.05;20.23;;;;;;;10.45;73.59;99440.91;5015465;28;20029;-78
2022/03/28 09:22:31;;;;;;;31.63;20.95;;;;;;;10.68;73.22;99429.38;5006269;28;20037;-77
2022/03/28 09:24:58;;;;;;;35.35;21.38;;;;;;;10.73;73.32;99423.34;5029136;28;20029;-76
2022/03/28 09:27:32;;;;;;;30.92;19.48;;;;;;;10.84;73.05;99426.00;5016899;28;20025;-79
2022/03/28 09:30:05;;;;;;;27.20;19.95;;;;;;;10.89;73.63;99415.44;5013221;28;20029;-77
2022/03/28 09:32:36;;;;;;;29.33;21.00;;;;;;;11.05;73.30;99421.91;5014150;28;20132;-79
2022/03/28 09:35:22;;;;;;;28.90;20.20;;;;;;;11.09;72.84;99409.69;5014476;28;20109;-77
2022/03/28 09:37:47;;;;;;;23.10;17.05;;;;;;;10.93;73.48;99400.56;5030412;28;20041;-77
2022/03/28 09:40:23;;;;;;;25.83;17.45;;;;;;;11.26;72.72;99402.53;5007761;28;20041;-77
2022/03/28 09:42:50;;;;;;;30.00;18.35;;;;;;;11.19;72.57;99397.31;5031575;28;20052;-78
2022/03/28 09:45:21;;;;;;;22.10;15.60;;;;;;;11.38;72.15;99397.94;5027757;28;20038;-77
2022/03/28 09:48:01;;;;;;;26.88;16.55;;;;;;;11.23;73.75;99393.13;5026226;28;20575;-78
2022/03/28 09:50:42;;;;;;;26.95;16.77;;;;;;;11.72;72.09;99388.13;5022571;28;20397;-77
2022/03/28 09:53:15;;;;;;;25.85;16.48;;;;;;;11.83;71.78;99381.91;5029698;28;20044;-77
2022/03/28 09:55:45;;;;;;;26.35;17.00;;;;;;;11.91;71.50;99382.31;5025431;28;20036;-77
2022/03/28 09:58:29;;;;;;;23.65;15.40;;;;;;;11.92;71.55;99385.78;5022872;28;20103;-77
2022/03/28 10:00:55;;;;;;;22.33;15.80;;;;;;;11.94;71.08;99376.47;5004871;28;20064;-78
2022/03/28 10:03:22;;;;;;;28.40;15.52;;;;;;;12.21;70.35;99386.50;5006028;28;20043;-77
2022/03/28 10:05:48;;;;;;;19.95;14.20;;;;;;;12.17;70.75;99380.00;5028024;28;20029;-77
2022/03/28 10:08:13;;;;;;;23.92;15.23;;;;;;;12.21;70.97;99375.81;5025813;28;20399;-77
2022/03/28 10:10:39;;;;;;;25.98;15.20;;;;;;;12.30;70.49;99369.75;5023671;28;20034;-77
2022/03/28 10:13:04;;;;;;;24.98;16.70;;;;;;;12.29;71.17;99360.13;5029376;28;20064;-79
2022/03/28 10:15:30;;;;;;;24.65;16.80;;;;;;;12.53;71.28;99361.53;5020627;28;20029;-77
2022/03/28 10:17:55;;;;;;;25.65;17.25;;;;;;;12.76;70.95;99361.28;5009181;28;20040;-78
2022/03/28 10:20:22;;;;;;;22.48;16.15;;;;;;;12.96;70.16;99347.28;5028110;28;20102;-78
2022/03/28 10:22:50;;;;;;;25.17;16.58;;;;;;;13.13;70.18;99344.53;5014123;28;20085;-79
2022/03/28 10:25:19;;;;;;;25.30;17.50;;;;;;;13.43;69.55;99344.88;5025257;28;20306;-79
2022/03/28 10:27:45;;;;;;;23.30;16.15;;;;;;;13.56;68.87;99340.94;5009555;28;20033;-78
2022/03/28 10:30:19;;;;;;;27.15;15.95;;;;;;;13.67;68.43;99339.97;5027297;28;20026;-77
2022/03/28 10:32:45;;;;;;;22.83;14.60;;;;;;;13.66;68.76;99344.53;5026074;28;20064;-78
2022/03/28 10:35:13;;;;;;;25.50;16.35;;;;;;;13.83;68.25;99336.31;5028620;28;20713;-76
2022/03/28 10:37:44;;;;;;;22.83;15.38;;;;;;;13.91;67.75;99338.53;5024410;28;20029;-78
2022/03/28 10:40:15;;;;;;;23.75;14.77;;;;;;;13.91;68.16;99333.19;5024250;28;20092;-78
2022/03/28 10:43:07;;;;;;;28.75;17.83;;;;;;;14.04;67.70;99328.16;5027147;28;20382;-78
2022/03/28 10:45:37;;;;;;;24.00;16.90;;;;;;;14.07;67.29;99326.81;5011406;28;20087;-77
2022/03/28 10:48:06;;;;;;;23.10;16.48;;;;;;;14.07;67.18;99324.94;5011315;28;20108;-77
2022/03/28 10:50:45;;;;;;;30.88;18.60;;;;;;;14.13;67.20;99318.53;5006725;28;20076;-77
2022/03/28 10:53:16;;;;;;;25.67;17.95;;;;;;;14.14;67.07;99319.34;5009028;28;20029;-77
2022/03/28 10:55:46;;;;;;;25.42;16.88;;;;;;;14.27;66.62;99310.84;5007738;28;20426;-77
2022/03/28 10:58:12;;;;;;;27.67;17.27;;;;;;;14.20;67.06;99310.25;5024889;28;20048;-77
2022/03/28 11:00:37;;;;;;;23.27;17.40;;;;;;;14.06;67.39;99309.13;5030058;28;20091;-76
2022/03/28 11:03:03;;;;;;;25.38;18.10;;;;;;;14.30;66.64;99298.81;5006296;28;20246;-77
2022/03/28 11:05:31;;;;;;;28.05;18.48;;;;;;;14.37;66.79;99297.50;5011438;28;20111;-79
2022/03/28 11:08:03;;;;;;;24.30;17.15;;;;;;;14.59;66.22;99292.75;5019136;28;20034;-78
2022/03/28 11:10:28;;;;;;;25.60;17.33;;;;;;;14.75;65.39;99283.66;5008430;28;20097;-81
2022/03/28 11:13:14;;;;;;;29.30;18.70;;;;;;;14.60;65.99;99275.56;5030599;28;20144;-78
2022/03/28 11:15:39;;;;;;;23.55;17.30;;;;;;;14.90;64.98;99270.25;5030934;28;20045;-80
2022/03/28 11:18:09;;;;;;;23.55;16.65;;;;;;;14.77;66.32;99270.78;5007845;28;20044;-78
2022/03/28 11:20:54;;;;;;;25.90;18.23;;;;;;;14.97;65.77;99270.00;5021409;28;20041;-80
2022/03/28 11:23:20;;;;;;;27.83;18.55;;;;;;;15.09;65.48;99267.88;5035939;28;20168;-79